sensor_id;sensor_type;location;lat;lon;timestamp;temperature;humidity
2124;DHT22;1068;52.460;13.528;2022-08-25T00:01:49;21.50;99.90
2124;DHT22;1068;52.460;13.528;2022-08-25T00:04:17;21.40;99.90
2124;DHT22;1068;52.460;13.528;2022-08-25T00:06:44;21.40;99.90
2124;DHT22;1068;52.460;13.528;2022-08-25T00:09:13;21.30;99.90
2124;DHT22;1068;52.460;13.528;2022-08-25T00:11:42;21.20;99.90
2124;DHT22;1068;52.460;13.528;2022-08-25T00:14:12;21.20;99.90
2124;DHT22;1068;52.460;13.528;2022-08-25T00:16:38;21.30;99.90
2124;DHT22;1068;52.460;13.528;2022-08-25T00:19:08;21.20;99.90
2124;DHT22;1068;52.460;13.528;2022-08-25T00:21:34;21.10;99.90
2124;DHT22;1068;52.460;13.528;2022-08-25T00:24:01;21.00;99.90
2124;DHT22;1068;52.460;13.528;2022-08-25T00:26:29;21.10;99.90
2124;DHT22;1068;52.460;13.528;2022-08-25T00:28:57;21.10;99.90
2124;DHT22;1068;52.460;13.528;2022-08-25T00:31:24;21.00;99.90
2124;DHT22;1068;52.460;13.528;2022-08-25T00:33:51;21.00;99.90
2124;DHT22;1068;52.460;13.528;2022-08-25T00:36:18;20.80;99.90
2124;DHT22;1068;52.460;13.528;2022-08-25T00:38:46;20.80;99.90
2124;DHT22;1068;52.460;13.528;2022-08-25T00:41:17;20.80;99.90
2124;DHT22;1068;52.460;13.528;2022-08-25T00:43:48;20.70;99.90
2124;DHT22;1068;52.460;13.528;2022-08-25T00:46:19;20.70;99.90
2124;DHT22;1068;52.460;13.528;2022-08-25T00:48:50;20.70;99.90
2124;DHT22;1068;52.460;13.528;2022-08-25T00:51:19;20.70;99.90
2124;DHT22;1068;52.460;13.528;2022-08-25T00:53:49;20.80;99.90
2124;DHT22;1068;52.460;13.528;2022-08-25T00:56:16;20.80;99.90
2124;DHT22;1068;52.460;13.528;2022-08-25T00:58:43;20.80;99.90
2124;DHT22;1068;52.460;13.528;2022-08-25T01:01:10;20.70;99.90
2124;DHT22;1068;52.460;13.528;2022-08-25T01:03:38;20.80;99.90
2124;DHT22;1068;52.460;13.528;2022-08-25T01:06:06;20.70;99.90
2124;DHT22;1068;52.460;13.528;2022-08-25T01:08:34;20.70;99.90
2124;DHT22;1068;52.460;13.528;2022-08-25T01:11:04;20.80;99.90
2124;DHT22;1068;52.460;13.528;2022-08-25T01:13:35;20.70;99.90
2124;DHT22;1068;52.460;13.528;2022-08-25T01:16:02;20.60;99.90
2124;DHT22;1068;52.460;13.528;2022-08-25T01:18:43;20.60;99.90
2124;DHT22;1068;52.460;13.528;2022-08-25T01:21:11;20.50;99.90
2124;DHT22;1068;52.460;13.528;2022-08-25T01:23:38;20.60;99.90
2124;DHT22;1068;52.460;13.528;2022-08-25T01:26:09;20.70;99.90
2124;DHT22;1068;52.460;13.528;2022-08-25T01:28:37;20.70;99.90
2124;DHT22;1068;52.460;13.528;2022-08-25T01:31:25;20.60;99.90
2124;DHT22;1068;52.460;13.528;2022-08-25T01:33:52;20.50;99.90
2124;DHT22;1068;52.460;13.528;2022-08-25T01:36:21;20.40;99.90
2124;DHT22;1068;52.460;13.528;2022-08-25T01:38:47;20.50;99.90
2124;DHT22;1068;52.460;13.528;2022-08-25T01:41:16;20.50;99.90
2124;DHT22;1068;52.460;13.528;2022-08-25T01:43:45;20.50;99.90
2124;DHT22;1068;52.460;13.528;2022-08-25T01:46:12;20.50;99.90
2124;DHT22;1068;52.460;13.528;2022-08-25T01:48:38;20.50;99.90
2124;DHT22;1068;52.460;13.528;2022-08-25T01:51:05;20.50;99.90
2124;DHT22;1068;52.460;13.528;2022-08-25T01:53:33;20.50;99.90
2124;DHT22;1068;52.460;13.528;2022-08-25T01:56:06;20.50;99.90
2124;DHT22;1068;52.460;13.528;2022-08-25T01:58:34;20.50;99.90
2124;DHT22;1068;52.460;13.528;2022-08-25T02:01:04;20.50;99.90
2124;DHT22;1068;52.460;13.528;2022-08-25T02:03:32;20.40;99.90
2124;DHT22;1068;52.460;13.528;2022-08-25T02:06:02;20.40;99.90
2124;DHT22;1068;52.460;13.528;2022-08-25T02:08:29;20.30;99.90
2124;DHT22;1068;52.460;13.528;2022-08-25T02:10:57;20.40;99.90
2124;DHT22;1068;52.460;13.528;2022-08-25T02:13:24;20.30;99.90
2124;DHT22;1068;52.460;13.528;2022-08-25T02:15:52;20.10;99.90
2124;DHT22;1068;52.460;13.528;2022-08-25T02:18:20;20.10;99.90
2124;DHT22;1068;52.460;13.528;2022-08-25T02:20:47;20.10;99.90
2124;DHT22;1068;52.460;13.528;2022-08-25T02:23:14;20.10;99.90
2124;DHT22;1068;52.460;13.528;2022-08-25T02:25:42;20.00;99.90
2124;DHT22;1068;52.460;13.528;2022-08-25T02:28:10;20.00;99.90
2124;DHT22;1068;52.460;13.528;2022-08-25T02:30:37;19.90;99.90
2124;DHT22;1068;52.460;13.528;2022-08-25T02:33:04;19.90;99.90
2124;DHT22;1068;52.460;13.528;2022-08-25T02:35:31;19.80;99.90
2124;DHT22;1068;52.460;13.528;2022-08-25T02:37:57;19.70;99.90
2124;DHT22;1068;52.460;13.528;2022-08-25T02:40:24;19.70;99.90
2124;DHT22;1068;52.460;13.528;2022-08-25T02:42:50;19.70;99.90
2124;DHT22;1068;52.460;13.528;2022-08-25T02:45:18;19.80;99.90
2124;DHT22;1068;52.460;13.528;2022-08-25T02:47:45;19.80;99.90
2124;DHT22;1068;52.460;13.528;2022-08-25T02:50:12;19.80;99.90
2124;DHT22;1068;52.460;13.528;2022-08-25T02:52:39;19.80;99.90
2124;DHT22;1068;52.460;13.528;2022-08-25T02:55:08;19.80;99.90
2124;DHT22;1068;52.460;13.528;2022-08-25T02:57:37;19.90;99.90
2124;DHT22;1068;52.460;13.528;2022-08-25T03:00:04;19.90;99.90
2124;DHT22;1068;52.460;13.528;2022-08-25T03:02:32;19.90;99.90
2124;DHT22;1068;52.460;13.528;2022-08-25T03:04:59;19.80;99.90
2124;DHT22;1068;52.460;13.528;2022-08-25T03:07:25;19.70;99.90
2124;DHT22;1068;52.460;13.528;2022-08-25T03:09:52;19.70;99.90
2124;DHT22;1068;52.460;13.528;2022-08-25T03:12:18;19.70;99.90
2124;DHT22;1068;52.460;13.528;2022-08-25T03:14:47;19.80;99.90
2124;DHT22;1068;52.460;13.528;2022-08-25T03:17:13;19.80;99.90
2124;DHT22;1068;52.460;13.528;2022-08-25T03:19:41;19.80;99.90
2124;DHT22;1068;52.460;13.528;2022-08-25T03:22:08;19.70;99.90
2124;DHT22;1068;52.460;13.528;2022-08-25T03:24:34;19.70;99.90
2124;DHT22;1068;52.460;13.528;2022-08-25T03:27:01;19.80;99.90
2124;DHT22;1068;52.460;13.528;2022-08-25T03:29:30;19.70;99.90
2124;DHT22;1068;52.460;13.528;2022-08-25T03:31:58;19.70;99.90
2124;DHT22;1068;52.460;13.528;2022-08-25T03:34:26;19.70;99.90
2124;DHT22;1068;52.460;13.528;2022-08-25T03:36:56;19.60;99.90
2124;DHT22;1068;52.460;13.528;2022-08-25T03:39:23;19.60;99.90
2124;DHT22;1068;52.460;13.528;2022-08-25T03:41:51;19.70;99.90
2124;DHT22;1068;52.460;13.528;2022-08-25T03:44:18;19.70;99.90
2124;DHT22;1068;52.460;13.528;2022-08-25T03:46:48;19.60;99.90
2124;DHT22;1068;52.460;13.528;2022-08-25T03:49:18;19.50;99.90
2124;DHT22;1068;52.460;13.528;2022-08-25T03:51:46;19.50;99.90
2124;DHT22;1068;52.460;13.528;2022-08-25T03:54:16;19.50;99.90
2124;DHT22;1068;52.460;13.528;2022-08-25T03:56:43;19.50;99.90
2124;DHT22;1068;52.460;13.528;2022-08-25T03:59:09;19.50;99.90
2124;DHT22;1068;52.460;13.528;2022-08-25T04:01:37;19.40;99.90
2124;DHT22;1068;52.460;13.528;2022-08-25T04:04:06;19.30;99.90
2124;DHT22;1068;52.460;13.528;2022-08-25T04:06:33;19.20;99.90
2124;DHT22;1068;52.460;13.528;2022-08-25T04:09:00;19.20;99.90
2124;DHT22;1068;52.460;13.528;2022-08-25T04:11:28;19.20;99.90
2124;DHT22;1068;52.460;13.528;2022-08-25T04:13:56;19.30;99.90
2124;DHT22;1068;52.460;13.528;2022-08-25T04:16:25;19.30;99.90
2124;DHT22;1068;52.460;13.528;2022-08-25T04:18:53;19.40;99.90
2124;DHT22;1068;52.460;13.528;2022-08-25T04:21:21;19.40;99.90
2124;DHT22;1068;52.460;13.528;2022-08-25T04:23:48;19.50;99.90
2124;DHT22;1068;52.460;13.528;2022-08-25T04:26:17;19.50;99.90
2124;DHT22;1068;52.460;13.528;2022-08-25T04:28:46;19.60;99.90
2124;DHT22;1068;52.460;13.528;2022-08-25T04:31:14;19.70;99.90
2124;DHT22;1068;52.460;13.528;2022-08-25T04:33:41;19.80;99.90
2124;DHT22;1068;52.460;13.528;2022-08-25T04:36:09;19.90;99.90
2124;DHT22;1068;52.460;13.528;2022-08-25T04:38:36;19.90;99.90
2124;DHT22;1068;52.460;13.528;2022-08-25T04:41:04;20.00;99.90
2124;DHT22;1068;52.460;13.528;2022-08-25T04:43:34;20.10;99.90
2124;DHT22;1068;52.460;13.528;2022-08-25T04:46:06;20.20;99.90
2124;DHT22;1068;52.460;13.528;2022-08-25T04:48:32;20.20;99.90
2124;DHT22;1068;52.460;13.528;2022-08-25T04:51:03;20.00;99.90
2124;DHT22;1068;52.460;13.528;2022-08-25T04:53:30;20.10;99.90
2124;DHT22;1068;52.460;13.528;2022-08-25T04:55:57;20.10;99.90
2124;DHT22;1068;52.460;13.528;2022-08-25T04:58:23;20.20;99.90
2124;DHT22;1068;52.460;13.528;2022-08-25T05:00:50;20.10;99.90
2124;DHT22;1068;52.460;13.528;2022-08-25T05:03:18;20.00;99.90
2124;DHT22;1068;52.460;13.528;2022-08-25T05:05:45;19.90;99.90
2124;DHT22;1068;52.460;13.528;2022-08-25T05:08:11;19.70;99.90
2124;DHT22;1068;52.460;13.528;2022-08-25T05:10:38;19.70;99.90
2124;DHT22;1068;52.460;13.528;2022-08-25T05:13:05;19.70;99.90
2124;DHT22;1068;52.460;13.528;2022-08-25T05:15:32;19.50;99.90
2124;DHT22;1068;52.460;13.528;2022-08-25T05:18:19;19.30;99.90
2124;DHT22;1068;52.460;13.528;2022-08-25T05:20:47;19.30;99.90
2124;DHT22;1068;52.460;13.528;2022-08-25T05:23:14;19.30;99.90
2124;DHT22;1068;52.460;13.528;2022-08-25T05:25:40;19.20;99.90
2124;DHT22;1068;52.460;13.528;2022-08-25T05:28:09;19.10;99.90
2124;DHT22;1068;52.460;13.528;2022-08-25T05:30:37;19.00;99.90
2124;DHT22;1068;52.460;13.528;2022-08-25T05:33:05;19.00;99.90
2124;DHT22;1068;52.460;13.528;2022-08-25T05:35:33;19.00;99.90
2124;DHT22;1068;52.460;13.528;2022-08-25T05:38:00;19.10;99.90
2124;DHT22;1068;52.460;13.528;2022-08-25T05:40:26;19.00;99.90
2124;DHT22;1068;52.460;13.528;2022-08-25T05:42:53;19.10;99.90
2124;DHT22;1068;52.460;13.528;2022-08-25T05:45:19;19.10;99.90
2124;DHT22;1068;52.460;13.528;2022-08-25T05:47:46;19.10;99.90
2124;DHT22;1068;52.460;13.528;2022-08-25T05:50:13;19.10;99.90
2124;DHT22;1068;52.460;13.528;2022-08-25T05:52:41;19.00;99.90
2124;DHT22;1068;52.460;13.528;2022-08-25T05:55:08;18.90;99.90
2124;DHT22;1068;52.460;13.528;2022-08-25T05:57:35;19.00;99.90
2124;DHT22;1068;52.460;13.528;2022-08-25T06:00:02;19.00;99.90
2124;DHT22;1068;52.460;13.528;2022-08-25T06:02:29;19.10;99.90
2124;DHT22;1068;52.460;13.528;2022-08-25T06:05:10;19.10;99.90
2124;DHT22;1068;52.460;13.528;2022-08-25T06:07:38;19.10;99.90
2124;DHT22;1068;52.460;13.528;2022-08-25T06:10:07;19.10;99.90
2124;DHT22;1068;52.460;13.528;2022-08-25T06:12:36;19.10;99.90
2124;DHT22;1068;52.460;13.528;2022-08-25T06:15:03;19.10;99.90
2124;DHT22;1068;52.460;13.528;2022-08-25T06:17:30;19.10;99.90
2124;DHT22;1068;52.460;13.528;2022-08-25T06:19:57;19.10;99.90
2124;DHT22;1068;52.460;13.528;2022-08-25T06:22:24;19.20;99.90
2124;DHT22;1068;52.460;13.528;2022-08-25T06:24:51;19.20;99.90
2124;DHT22;1068;52.460;13.528;2022-08-25T06:27:19;19.20;99.90
2124;DHT22;1068;52.460;13.528;2022-08-25T06:29:46;19.30;99.90
2124;DHT22;1068;52.460;13.528;2022-08-25T06:32:12;19.30;99.90
2124;DHT22;1068;52.460;13.528;2022-08-25T06:34:39;19.40;99.90
2124;DHT22;1068;52.460;13.528;2022-08-25T06:37:05;19.50;99.90
2124;DHT22;1068;52.460;13.528;2022-08-25T06:39:32;19.60;99.90
2124;DHT22;1068;52.460;13.528;2022-08-25T06:41:58;19.60;99.90
2124;DHT22;1068;52.460;13.528;2022-08-25T06:44:27;19.70;99.90
2124;DHT22;1068;52.460;13.528;2022-08-25T06:46:53;19.60;99.90
2124;DHT22;1068;52.460;13.528;2022-08-25T06:49:20;19.70;99.90
2124;DHT22;1068;52.460;13.528;2022-08-25T06:51:47;19.70;99.90
2124;DHT22;1068;52.460;13.528;2022-08-25T06:54:14;19.80;99.90
2124;DHT22;1068;52.460;13.528;2022-08-25T06:56:41;19.70;99.90
2124;DHT22;1068;52.460;13.528;2022-08-25T06:59:08;19.80;99.90
2124;DHT22;1068;52.460;13.528;2022-08-25T07:01:36;19.90;99.90
2124;DHT22;1068;52.460;13.528;2022-08-25T07:04:04;19.80;99.90
2124;DHT22;1068;52.460;13.528;2022-08-25T07:06:32;19.90;99.90
2124;DHT22;1068;52.460;13.528;2022-08-25T07:09:01;19.90;99.90
2124;DHT22;1068;52.460;13.528;2022-08-25T07:11:28;19.80;99.90
2124;DHT22;1068;52.460;13.528;2022-08-25T07:13:59;19.90;99.90
2124;DHT22;1068;52.460;13.528;2022-08-25T07:16:26;20.10;99.90
2124;DHT22;1068;52.460;13.528;2022-08-25T07:18:54;20.00;99.90
2124;DHT22;1068;52.460;13.528;2022-08-25T07:21:21;20.00;99.90
2124;DHT22;1068;52.460;13.528;2022-08-25T07:23:48;20.10;99.90
2124;DHT22;1068;52.460;13.528;2022-08-25T07:26:16;20.10;99.90
2124;DHT22;1068;52.460;13.528;2022-08-25T07:28:43;20.10;99.90
2124;DHT22;1068;52.460;13.528;2022-08-25T07:31:10;20.00;99.90
2124;DHT22;1068;52.460;13.528;2022-08-25T07:33:37;19.90;99.90
2124;DHT22;1068;52.460;13.528;2022-08-25T07:36:25;20.10;99.90
2124;DHT22;1068;52.460;13.528;2022-08-25T07:38:51;20.20;99.90
2124;DHT22;1068;52.460;13.528;2022-08-25T07:41:18;20.20;99.90
2124;DHT22;1068;52.460;13.528;2022-08-25T07:43:44;20.20;99.90
2124;DHT22;1068;52.460;13.528;2022-08-25T07:46:11;20.30;99.90
2124;DHT22;1068;52.460;13.528;2022-08-25T07:48:38;20.30;99.90
2124;DHT22;1068;52.460;13.528;2022-08-25T07:51:06;20.40;99.90
2124;DHT22;1068;52.460;13.528;2022-08-25T07:53:35;20.40;99.90
2124;DHT22;1068;52.460;13.528;2022-08-25T07:56:07;20.50;99.90
2124;DHT22;1068;52.460;13.528;2022-08-25T07:58:34;20.50;99.90
2124;DHT22;1068;52.460;13.528;2022-08-25T08:01:00;20.50;99.90
2124;DHT22;1068;52.460;13.528;2022-08-25T08:03:27;20.70;99.90
2124;DHT22;1068;52.460;13.528;2022-08-25T08:05:54;20.70;99.90
2124;DHT22;1068;52.460;13.528;2022-08-25T08:08:21;20.60;99.90
2124;DHT22;1068;52.460;13.528;2022-08-25T08:10:49;20.50;99.90
2124;DHT22;1068;52.460;13.528;2022-08-25T08:13:15;20.70;99.90
2124;DHT22;1068;52.460;13.528;2022-08-25T08:15:42;20.80;99.90
2124;DHT22;1068;52.460;13.528;2022-08-25T08:18:09;20.70;99.90
2124;DHT22;1068;52.460;13.528;2022-08-25T08:20:36;20.70;99.90
2124;DHT22;1068;52.460;13.528;2022-08-25T08:23:03;20.70;99.90
2124;DHT22;1068;52.460;13.528;2022-08-25T08:25:30;20.80;99.90
2124;DHT22;1068;52.460;13.528;2022-08-25T08:27:57;20.90;99.90
2124;DHT22;1068;52.460;13.528;2022-08-25T08:30:24;20.90;99.90
2124;DHT22;1068;52.460;13.528;2022-08-25T08:32:50;21.00;99.90
2124;DHT22;1068;52.460;13.528;2022-08-25T08:35:17;20.90;99.90
2124;DHT22;1068;52.460;13.528;2022-08-25T08:37:44;20.80;99.90
2124;DHT22;1068;52.460;13.528;2022-08-25T08:40:14;20.80;99.90
2124;DHT22;1068;52.460;13.528;2022-08-25T08:42:49;20.90;99.90
2124;DHT22;1068;52.460;13.528;2022-08-25T08:45:27;21.00;99.90
2124;DHT22;1068;52.460;13.528;2022-08-25T08:48:09;21.10;99.90
2124;DHT22;1068;52.460;13.528;2022-08-25T08:50:45;21.20;99.90
2124;DHT22;1068;52.460;13.528;2022-08-25T08:53:18;21.30;99.90
2124;DHT22;1068;52.460;13.528;2022-08-25T08:55:50;21.40;99.90
2124;DHT22;1068;52.460;13.528;2022-08-25T08:58:19;21.30;99.90
2124;DHT22;1068;52.460;13.528;2022-08-25T09:00:49;21.30;99.90
2124;DHT22;1068;52.460;13.528;2022-08-25T09:03:28;21.30;99.90
2124;DHT22;1068;52.460;13.528;2022-08-25T09:06:01;21.30;99.90
2124;DHT22;1068;52.460;13.528;2022-08-25T09:08:28;21.40;99.90
2124;DHT22;1068;52.460;13.528;2022-08-25T09:11:01;21.40;99.90
2124;DHT22;1068;52.460;13.528;2022-08-25T09:13:41;21.60;99.90
2124;DHT22;1068;52.460;13.528;2022-08-25T09:16:19;21.70;99.90
2124;DHT22;1068;52.460;13.528;2022-08-25T09:19:16;21.80;99.90
2124;DHT22;1068;52.460;13.528;2022-08-25T09:21:52;21.80;99.90
2124;DHT22;1068;52.460;13.528;2022-08-25T09:24:34;21.90;99.90
2124;DHT22;1068;52.460;13.528;2022-08-25T09:27:13;22.20;99.90
2124;DHT22;1068;52.460;13.528;2022-08-25T09:29:49;22.40;99.90
2124;DHT22;1068;52.460;13.528;2022-08-25T09:32:20;22.60;99.90
2124;DHT22;1068;52.460;13.528;2022-08-25T09:34:49;22.60;99.90
2124;DHT22;1068;52.460;13.528;2022-08-25T09:37:16;22.50;99.90
2124;DHT22;1068;52.460;13.528;2022-08-25T09:39:43;22.80;99.90
2124;DHT22;1068;52.460;13.528;2022-08-25T09:42:09;22.60;99.90
2124;DHT22;1068;52.460;13.528;2022-08-25T09:44:39;22.40;99.90
2124;DHT22;1068;52.460;13.528;2022-08-25T09:47:18;22.40;99.90
2124;DHT22;1068;52.460;13.528;2022-08-25T09:49:49;22.60;99.90
2124;DHT22;1068;52.460;13.528;2022-08-25T09:52:34;22.60;99.90
2124;DHT22;1068;52.460;13.528;2022-08-25T09:55:25;22.70;99.90
2124;DHT22;1068;52.460;13.528;2022-08-25T09:57:54;22.70;99.90
2124;DHT22;1068;52.460;13.528;2022-08-25T10:00:23;23.10;99.90
2124;DHT22;1068;52.460;13.528;2022-08-25T10:03:04;23.20;99.90
2124;DHT22;1068;52.460;13.528;2022-08-25T10:05:34;23.50;99.90
2124;DHT22;1068;52.460;13.528;2022-08-25T10:08:10;23.40;99.90
2124;DHT22;1068;52.460;13.528;2022-08-25T10:10:43;23.50;99.90
2124;DHT22;1068;52.460;13.528;2022-08-25T10:13:16;23.50;99.90
2124;DHT22;1068;52.460;13.528;2022-08-25T10:15:43;23.60;99.90
2124;DHT22;1068;52.460;13.528;2022-08-25T10:18:21;23.90;99.90
2124;DHT22;1068;52.460;13.528;2022-08-25T10:21:05;24.20;99.90
2124;DHT22;1068;52.460;13.528;2022-08-25T10:23:34;23.80;99.90
2124;DHT22;1068;52.460;13.528;2022-08-25T10:26:14;23.90;99.90
2124;DHT22;1068;52.460;13.528;2022-08-25T10:28:58;23.70;99.90
2124;DHT22;1068;52.460;13.528;2022-08-25T10:31:33;23.90;99.90
2124;DHT22;1068;52.460;13.528;2022-08-25T10:34:15;24.10;99.90
2124;DHT22;1068;52.460;13.528;2022-08-25T10:36:55;23.90;99.90
2124;DHT22;1068;52.460;13.528;2022-08-25T10:39:35;24.00;99.90
2124;DHT22;1068;52.460;13.528;2022-08-25T10:42:13;24.30;99.90
2124;DHT22;1068;52.460;13.528;2022-08-25T10:44:49;24.60;99.90
2124;DHT22;1068;52.460;13.528;2022-08-25T10:47:47;24.70;99.90
2124;DHT22;1068;52.460;13.528;2022-08-25T10:50:22;25.00;99.90
2124;DHT22;1068;52.460;13.528;2022-08-25T10:53:08;25.30;99.90
2124;DHT22;1068;52.460;13.528;2022-08-25T10:55:42;25.40;99.90
2124;DHT22;1068;52.460;13.528;2022-08-25T10:58:17;25.70;99.90
2124;DHT22;1068;52.460;13.528;2022-08-25T11:00:50;25.70;99.90
2124;DHT22;1068;52.460;13.528;2022-08-25T11:03:36;25.70;99.90
2124;DHT22;1068;52.460;13.528;2022-08-25T11:06:10;26.00;99.90
2124;DHT22;1068;52.460;13.528;2022-08-25T11:08:44;26.00;99.90
2124;DHT22;1068;52.460;13.528;2022-08-25T11:11:19;25.70;99.90
2124;DHT22;1068;52.460;13.528;2022-08-25T11:13:54;25.60;99.90
2124;DHT22;1068;52.460;13.528;2022-08-25T11:16:32;25.40;99.90
2124;DHT22;1068;52.460;13.528;2022-08-25T11:19:04;25.30;99.90
2124;DHT22;1068;52.460;13.528;2022-08-25T11:21:39;25.30;99.90
2124;DHT22;1068;52.460;13.528;2022-08-25T11:24:15;25.40;99.90
2124;DHT22;1068;52.460;13.528;2022-08-25T11:26:53;25.50;99.90
2124;DHT22;1068;52.460;13.528;2022-08-25T11:29:22;25.70;99.90
2124;DHT22;1068;52.460;13.528;2022-08-25T11:31:51;26.00;99.90
2124;DHT22;1068;52.460;13.528;2022-08-25T11:34:19;25.90;99.90
2124;DHT22;1068;52.460;13.528;2022-08-25T11:36:50;25.60;99.90
2124;DHT22;1068;52.460;13.528;2022-08-25T11:39:30;25.50;99.90
2124;DHT22;1068;52.460;13.528;2022-08-25T11:42:07;25.70;99.90
2124;DHT22;1068;52.460;13.528;2022-08-25T11:44:47;25.80;99.90
2124;DHT22;1068;52.460;13.528;2022-08-25T11:47:31;26.30;99.90
2124;DHT22;1068;52.460;13.528;2022-08-25T11:50:02;26.60;99.90
2124;DHT22;1068;52.460;13.528;2022-08-25T11:52:43;26.60;99.90
2124;DHT22;1068;52.460;13.528;2022-08-25T11:55:14;26.70;99.90
2124;DHT22;1068;52.460;13.528;2022-08-25T11:57:43;27.10;99.90
2124;DHT22;1068;52.460;13.528;2022-08-25T12:00:13;27.20;99.90
2124;DHT22;1068;52.460;13.528;2022-08-25T12:02:42;26.90;99.90
2124;DHT22;1068;52.460;13.528;2022-08-25T12:05:48;26.80;99.90
2124;DHT22;1068;52.460;13.528;2022-08-25T12:08:03;26.80;99.90
2124;DHT22;1068;52.460;13.528;2022-08-25T12:10:59;26.70;99.90
2124;DHT22;1068;52.460;13.528;2022-08-25T12:13:42;26.60;99.90
2124;DHT22;1068;52.460;13.528;2022-08-25T12:16:36;26.40;99.90
2124;DHT22;1068;52.460;13.528;2022-08-25T12:19:27;26.60;99.90
2124;DHT22;1068;52.460;13.528;2022-08-25T12:21:56;26.30;99.90
2124;DHT22;1068;52.460;13.528;2022-08-25T12:24:46;26.30;99.90
2124;DHT22;1068;52.460;13.528;2022-08-25T12:27:22;26.50;99.90
2124;DHT22;1068;52.460;13.528;2022-08-25T12:29:53;26.90;99.90
2124;DHT22;1068;52.460;13.528;2022-08-25T12:32:37;27.30;99.90
2124;DHT22;1068;52.460;13.528;2022-08-25T12:35:20;27.40;99.90
2124;DHT22;1068;52.460;13.528;2022-08-25T12:38:03;27.30;99.90
2124;DHT22;1068;52.460;13.528;2022-08-25T12:40:34;27.30;99.90
2124;DHT22;1068;52.460;13.528;2022-08-25T12:43:09;26.90;99.90
2124;DHT22;1068;52.460;13.528;2022-08-25T12:45:42;26.70;99.90
2124;DHT22;1068;52.460;13.528;2022-08-25T12:48:40;26.40;99.90
2124;DHT22;1068;52.460;13.528;2022-08-25T12:51:15;26.30;99.90
2124;DHT22;1068;52.460;13.528;2022-08-25T12:53:44;26.60;99.90
2124;DHT22;1068;52.460;13.528;2022-08-25T12:56:22;26.90;99.90
2124;DHT22;1068;52.460;13.528;2022-08-25T12:58:54;27.30;99.90
2124;DHT22;1068;52.460;13.528;2022-08-25T13:01:31;27.40;99.90
2124;DHT22;1068;52.460;13.528;2022-08-25T13:07:08;27.70;99.90
2124;DHT22;1068;52.460;13.528;2022-08-25T13:12:45;27.80;99.90
2124;DHT22;1068;52.460;13.528;2022-08-25T13:15:24;27.90;99.90
2124;DHT22;1068;52.460;13.528;2022-08-25T13:17:51;28.00;99.90
2124;DHT22;1068;52.460;13.528;2022-08-25T13:20:22;28.00;99.90
2124;DHT22;1068;52.460;13.528;2022-08-25T13:22:51;27.50;99.90
2124;DHT22;1068;52.460;13.528;2022-08-25T13:25:20;27.30;99.90
2124;DHT22;1068;52.460;13.528;2022-08-25T13:27:52;27.30;99.90
2124;DHT22;1068;52.460;13.528;2022-08-25T13:30:25;27.10;99.90
2124;DHT22;1068;52.460;13.528;2022-08-25T13:32:52;27.10;99.90
2124;DHT22;1068;52.460;13.528;2022-08-25T13:35:22;27.20;99.90
2124;DHT22;1068;52.460;13.528;2022-08-25T13:37:49;27.10;99.90
2124;DHT22;1068;52.460;13.528;2022-08-25T13:40:22;27.10;99.90
2124;DHT22;1068;52.460;13.528;2022-08-25T13:42:52;27.20;99.90
2124;DHT22;1068;52.460;13.528;2022-08-25T13:45:23;27.30;99.90
2124;DHT22;1068;52.460;13.528;2022-08-25T13:47:50;27.60;99.90
2124;DHT22;1068;52.460;13.528;2022-08-25T13:50:28;27.50;99.90
2124;DHT22;1068;52.460;13.528;2022-08-25T13:52:57;27.90;99.90
2124;DHT22;1068;52.460;13.528;2022-08-25T13:55:28;27.80;99.90
2124;DHT22;1068;52.460;13.528;2022-08-25T13:57:58;28.10;99.90
2124;DHT22;1068;52.460;13.528;2022-08-25T14:00:28;28.10;99.90
2124;DHT22;1068;52.460;13.528;2022-08-25T14:02:56;28.00;99.90
2124;DHT22;1068;52.460;13.528;2022-08-25T14:05:36;27.80;99.90
2124;DHT22;1068;52.460;13.528;2022-08-25T14:08:04;27.60;99.90
2124;DHT22;1068;52.460;13.528;2022-08-25T14:10:41;27.60;99.90
2124;DHT22;1068;52.460;13.528;2022-08-25T14:13:15;27.60;99.90
2124;DHT22;1068;52.460;13.528;2022-08-25T14:15:54;27.80;99.90
2124;DHT22;1068;52.460;13.528;2022-08-25T14:18:23;27.90;99.90
2124;DHT22;1068;52.460;13.528;2022-08-25T14:20:53;28.00;99.90
2124;DHT22;1068;52.460;13.528;2022-08-25T14:23:23;27.90;99.90
2124;DHT22;1068;52.460;13.528;2022-08-25T14:25:52;28.20;99.90
2124;DHT22;1068;52.460;13.528;2022-08-25T14:28:22;28.30;99.90
2124;DHT22;1068;52.460;13.528;2022-08-25T14:30:52;28.40;99.90
2124;DHT22;1068;52.460;13.528;2022-08-25T14:33:21;28.40;99.90
2124;DHT22;1068;52.460;13.528;2022-08-25T14:35:50;28.60;99.90
2124;DHT22;1068;52.460;13.528;2022-08-25T14:38:18;28.50;99.90
2124;DHT22;1068;52.460;13.528;2022-08-25T14:40:45;28.50;99.90
2124;DHT22;1068;52.460;13.528;2022-08-25T14:43:12;28.50;99.90
2124;DHT22;1068;52.460;13.528;2022-08-25T14:45:42;28.40;99.90
2124;DHT22;1068;52.460;13.528;2022-08-25T14:48:13;28.10;99.90
2124;DHT22;1068;52.460;13.528;2022-08-25T14:50:41;27.90;99.90
2124;DHT22;1068;52.460;13.528;2022-08-25T14:53:09;27.70;99.90
2124;DHT22;1068;52.460;13.528;2022-08-25T14:55:35;27.50;99.90
2124;DHT22;1068;52.460;13.528;2022-08-25T14:58:02;27.40;99.90
2124;DHT22;1068;52.460;13.528;2022-08-25T15:00:28;27.30;99.90
2124;DHT22;1068;52.460;13.528;2022-08-25T15:02:56;27.40;99.90
2124;DHT22;1068;52.460;13.528;2022-08-25T15:05:24;27.60;99.90
2124;DHT22;1068;52.460;13.528;2022-08-25T15:07:52;27.70;99.90
2124;DHT22;1068;52.460;13.528;2022-08-25T15:10:36;27.80;99.90
2124;DHT22;1068;52.460;13.528;2022-08-25T15:13:03;27.90;99.90
2124;DHT22;1068;52.460;13.528;2022-08-25T15:15:30;28.00;99.90
2124;DHT22;1068;52.460;13.528;2022-08-25T15:17:58;28.00;99.90
2124;DHT22;1068;52.460;13.528;2022-08-25T15:20:25;28.10;99.90
2124;DHT22;1068;52.460;13.528;2022-08-25T15:22:52;27.90;99.90
2124;DHT22;1068;52.460;13.528;2022-08-25T15:25:18;27.70;99.90
2124;DHT22;1068;52.460;13.528;2022-08-25T15:27:47;27.60;99.90
2124;DHT22;1068;52.460;13.528;2022-08-25T15:30:14;27.50;99.90
2124;DHT22;1068;52.460;13.528;2022-08-25T15:32:41;27.30;99.90
2124;DHT22;1068;52.460;13.528;2022-08-25T15:35:09;27.40;99.90
2124;DHT22;1068;52.460;13.528;2022-08-25T15:37:36;27.30;99.90
2124;DHT22;1068;52.460;13.528;2022-08-25T15:40:04;27.10;99.90
2124;DHT22;1068;52.460;13.528;2022-08-25T15:42:33;27.20;99.90
2124;DHT22;1068;52.460;13.528;2022-08-25T15:44:59;27.30;99.90
2124;DHT22;1068;52.460;13.528;2022-08-25T15:47:26;27.50;99.90
2124;DHT22;1068;52.460;13.528;2022-08-25T15:50:01;27.60;99.90
2124;DHT22;1068;52.460;13.528;2022-08-25T15:52:30;27.70;99.90
2124;DHT22;1068;52.460;13.528;2022-08-25T15:54:56;27.50;99.90
2124;DHT22;1068;52.460;13.528;2022-08-25T15:57:23;27.50;99.90
2124;DHT22;1068;52.460;13.528;2022-08-25T15:59:49;27.40;99.90
2124;DHT22;1068;52.460;13.528;2022-08-25T16:02:16;27.60;99.90
2124;DHT22;1068;52.460;13.528;2022-08-25T16:04:43;27.40;99.90
2124;DHT22;1068;52.460;13.528;2022-08-25T16:07:09;27.40;99.90
2124;DHT22;1068;52.460;13.528;2022-08-25T16:09:38;27.30;99.90
2124;DHT22;1068;52.460;13.528;2022-08-25T16:12:05;27.20;99.90